createdAt,value
2018-07-04T00:00:28.909Z,11.40
2018-07-04T00:03:08.959Z,9.43
2018-07-04T00:05:49.252Z,9.37
2018-07-04T00:08:30.830Z,10.47
2018-07-04T00:11:10.430Z,10.60
2018-07-04T00:13:51.531Z,24.47
2018-07-04T00:16:31.367Z,9.00
2018-07-04T00:19:11.261Z,21.00
2018-07-04T00:21:51.793Z,14.10
2018-07-04T00:24:31.513Z,11.83
2018-07-04T00:27:17.991Z,9.67
2018-07-04T00:30:09.155Z,9.80
2018-07-04T00:32:49.829Z,10.17
2018-07-04T00:35:35.533Z,8.90
2018-07-04T00:38:16.234Z,9.30
2018-07-04T00:41:00.940Z,11.97
2018-07-04T00:46:37.531Z,10.37
2018-07-04T00:49:19.680Z,10.40
2018-07-04T00:54:54.757Z,12.17
2018-07-04T00:57:40.385Z,10.90
2018-07-04T01:00:23.752Z,12.33
2018-07-04T01:03:07.335Z,10.97
2018-07-04T01:05:51.003Z,10.30
2018-07-04T01:08:30.818Z,10.17
2018-07-04T01:11:07.813Z,11.23
2018-07-04T01:13:50.967Z,12.43
2018-07-04T01:16:31.613Z,13.23
2018-07-04T01:19:11.962Z,11.63
2018-07-04T01:21:57.455Z,18.70
2018-07-04T01:24:38.300Z,10.37
2018-07-04T01:27:18.086Z,8.93
2018-07-04T01:29:59.936Z,10.67
2018-07-04T01:32:39.816Z,10.93
2018-07-04T01:35:26.271Z,9.03
2018-07-04T01:38:05.874Z,10.80
2018-07-04T01:40:46.528Z,8.37
2018-07-04T01:43:26.393Z,12.90
2018-07-04T01:46:11.028Z,8.93
2018-07-04T01:48:50.746Z,9.87
2018-07-04T01:51:33.090Z,11.97
2018-07-04T01:54:16.924Z,10.27
2018-07-04T01:56:56.670Z,8.80
2018-07-04T01:59:37.602Z,10.50
2018-07-04T02:02:17.423Z,10.73
2018-07-04T02:04:57.148Z,10.17
2018-07-04T02:07:39.066Z,9.13
2018-07-04T02:10:20.638Z,9.57
2018-07-04T02:13:00.406Z,14.20
2018-07-04T02:18:30.715Z,12.90
2018-07-04T02:21:12.107Z,10.57
2018-07-04T02:23:52.763Z,10.13
2018-07-04T02:26:38.660Z,14.73
2018-07-04T02:29:19.217Z,12.10
2018-07-04T02:32:03.026Z,15.40
2018-07-04T02:34:43.724Z,14.70
2018-07-04T02:37:25.385Z,11.90
2018-07-04T02:40:09.455Z,13.20
2018-07-04T02:42:49.269Z,11.67
2018-07-04T02:45:29.582Z,10.40
2018-07-04T02:48:11.090Z,13.13
2018-07-04T02:50:57.486Z,9.73
2018-07-04T02:53:37.262Z,12.97
2018-07-04T02:56:17.895Z,14.83
2018-07-04T02:59:00.704Z,13.33
2018-07-04T03:01:40.444Z,15.50
2018-07-04T03:04:21.862Z,13.97
2018-07-04T03:07:05.048Z,11.60
2018-07-04T03:09:51.093Z,11.10
2018-07-04T03:12:31.727Z,11.47
2018-07-04T03:18:05.846Z,11.30
2018-07-04T03:20:45.612Z,9.77
2018-07-04T03:23:27.707Z,11.23
2018-07-04T03:26:10.982Z,10.90
2018-07-04T03:28:53.055Z,13.73
2018-07-04T03:31:33.476Z,12.03
2018-07-04T03:34:14.210Z,10.77
2018-07-04T03:36:55.752Z,11.27
2018-07-04T03:39:36.643Z,13.87
2018-07-04T03:42:17.548Z,16.70
2018-07-04T03:44:57.920Z,13.57
2018-07-04T03:47:38.883Z,14.33
2018-07-04T03:50:23.238Z,12.43
2018-07-04T03:53:05.130Z,16.43
2018-07-04T03:55:44.789Z,14.80
2018-07-04T03:58:26.290Z,16.73
2018-07-04T04:01:07.936Z,19.30
2018-07-04T04:03:48.436Z,16.53
2018-07-04T04:06:29.209Z,14.87
2018-07-04T04:09:11.974Z,15.87
2018-07-04T04:11:57.862Z,13.00
2018-07-04T04:14:42.782Z,14.40
2018-07-04T04:17:22.658Z,14.47
2018-07-04T04:20:03.375Z,13.63
2018-07-04T04:22:43.272Z,15.80
2018-07-04T04:25:22.952Z,12.77
2018-07-04T04:28:02.914Z,15.40
2018-07-04T04:30:42.854Z,13.43
2018-07-04T04:33:25.710Z,17.77
2018-07-04T04:36:06.627Z,15.40
2018-07-04T04:38:46.276Z,15.67
2018-07-04T04:41:25.906Z,23.83
2018-07-04T04:44:09.870Z,18.53
2018-07-04T04:46:49.464Z,18.23
2018-07-04T04:49:29.132Z,15.17
2018-07-04T04:52:09.116Z,14.40
2018-07-04T04:54:49.016Z,21.90
2018-07-04T04:57:28.899Z,15.70
2018-07-04T05:00:08.426Z,14.13
2018-07-04T05:02:54.281Z,14.23
2018-07-04T05:05:38.018Z,15.27
2018-07-04T05:08:18.033Z,17.77
2018-07-04T05:10:57.674Z,16.37
2018-07-04T05:13:39.671Z,23.53
2018-07-04T05:16:21.574Z,15.93
2018-07-04T05:19:02.554Z,14.47
2018-07-04T05:21:46.320Z,16.10
2018-07-04T05:24:25.944Z,16.37
2018-07-04T05:27:11.744Z,14.90
2018-07-04T05:29:58.009Z,15.63
2018-07-04T05:32:42.380Z,16.13
2018-07-04T05:35:23.168Z,17.80
2018-07-04T05:38:09.013Z,23.30
2018-07-04T05:40:49.608Z,19.17
2018-07-04T05:43:30.728Z,18.50
2018-07-04T05:46:16.678Z,16.70
2018-07-04T05:48:57.576Z,22.57
2018-07-04T05:51:40.652Z,20.13
2018-07-04T05:54:21.715Z,19.87
2018-07-04T05:57:01.410Z,21.13
2018-07-04T05:59:42.375Z,18.73
2018-07-04T06:02:23.310Z,16.27
2018-07-04T06:05:06.298Z,17.37
2018-07-04T06:07:46.172Z,19.37
2018-07-04T06:10:26.886Z,23.20
2018-07-04T06:13:13.942Z,21.07
2018-07-04T06:15:54.570Z,18.43
2018-07-04T06:18:38.892Z,15.60
2018-07-04T06:21:21.849Z,20.27
2018-07-04T06:24:02.634Z,26.97
2018-07-04T06:26:36.282Z,21.37
2018-07-04T06:29:17.162Z,16.43
2018-07-04T06:31:59.414Z,18.00
2018-07-04T06:34:35.220Z,25.70
2018-07-04T06:37:20.400Z,21.00
2018-07-04T06:39:48.852Z,18.07
2018-07-04T06:42:16.296Z,23.20
2018-07-04T06:44:45.134Z,17.90
2018-07-04T06:47:12.444Z,19.77
2018-07-04T06:49:40.030Z,17.57
2018-07-04T06:52:07.334Z,19.80
2018-07-04T06:54:34.783Z,18.43
2018-07-04T06:57:03.192Z,18.97
2018-07-04T06:59:31.554Z,16.50
2018-07-04T07:02:19.544Z,19.27
2018-07-04T07:05:00.282Z,20.30
2018-07-04T07:07:40.238Z,20.20
2018-07-04T07:10:23.361Z,21.87
2018-07-04T07:13:10.498Z,20.00
2018-07-04T07:15:50.003Z,21.00
2018-07-04T07:18:35.050Z,19.07
2018-07-04T07:21:14.723Z,21.27
2018-07-04T07:23:57.972Z,20.27
2018-07-04T07:26:45.510Z,19.10
2018-07-04T07:29:27.256Z,20.20
2018-07-04T07:32:11.123Z,20.37
2018-07-04T07:34:54.902Z,22.83
2018-07-04T07:40:28.510Z,29.97
2018-07-04T07:43:09.586Z,21.30
2018-07-04T07:45:57.852Z,18.07
2018-07-04T07:48:37.829Z,23.33
2018-07-04T07:51:17.650Z,23.23
2018-07-04T07:53:59.954Z,22.00
2018-07-04T07:56:39.812Z,20.40
2018-07-04T08:02:12.899Z,21.80
2018-07-04T08:04:54.134Z,19.83
2018-07-04T08:07:35.869Z,21.47
2018-07-04T08:10:15.508Z,23.47
2018-07-04T08:12:56.200Z,24.93
2018-07-04T08:15:36.128Z,19.50
2018-07-04T08:18:16.860Z,19.73
2018-07-04T08:20:59.587Z,18.30
2018-07-04T08:23:49.010Z,20.93
2018-07-04T08:26:29.029Z,18.03
2018-07-04T08:29:13.481Z,18.13
2018-07-04T08:31:53.422Z,18.67
2018-07-04T08:34:33.080Z,24.60
2018-07-04T08:37:18.724Z,21.80
2018-07-04T08:45:44.534Z,20.43
2018-07-04T08:48:29.145Z,21.43
2018-07-04T08:51:12.620Z,21.13
2018-07-04T08:53:53.134Z,20.30
2018-07-04T08:56:32.634Z,22.27
2018-07-04T08:59:17.922Z,18.93
2018-07-04T09:02:00.821Z,26.20
2018-07-04T09:04:41.998Z,24.13
2018-07-04T09:07:28.864Z,20.03
2018-07-04T09:10:13.638Z,22.70
2018-07-04T09:12:55.398Z,26.73
2018-07-04T09:15:35.102Z,27.57
2018-07-04T09:18:16.058Z,22.50
2018-07-04T09:20:56.962Z,20.03
2018-07-04T09:23:37.656Z,21.33
2018-07-04T09:26:18.338Z,19.47
2018-07-04T09:29:01.808Z,26.67
2018-07-04T09:31:46.752Z,22.67
2018-07-04T09:34:29.665Z,21.70
2018-07-04T09:37:12.912Z,23.43
2018-07-04T09:39:52.594Z,22.40
2018-07-04T09:42:32.318Z,26.23
2018-07-04T09:45:12.712Z,24.93
2018-07-04T09:47:52.729Z,24.33
2018-07-04T09:50:33.566Z,24.40
2018-07-04T09:53:20.196Z,34.10
2018-07-04T09:56:05.062Z,28.07
2018-07-04T09:58:50.236Z,23.73
2018-07-04T10:01:30.758Z,25.87
2018-07-04T10:04:10.348Z,24.93
2018-07-04T10:06:52.646Z,22.67
2018-07-04T10:09:33.264Z,21.83
2018-07-04T10:12:15.182Z,27.30
2018-07-04T10:14:59.224Z,23.83
2018-07-04T10:17:39.688Z,27.13
2018-07-04T10:20:20.102Z,32.13
2018-07-04T10:23:03.480Z,24.63
2018-07-04T10:25:48.855Z,26.20
2018-07-04T10:28:29.136Z,21.93
2018-07-04T10:31:16.880Z,23.67
2018-07-04T10:33:57.587Z,24.57
2018-07-04T10:36:39.428Z,26.27
2018-07-04T10:39:29.943Z,28.13
2018-07-04T10:42:12.775Z,25.67
2018-07-04T10:44:57.382Z,29.40
2018-07-04T10:50:31.890Z,24.57
2018-07-04T10:53:20.345Z,26.53
2018-07-04T10:56:01.130Z,32.50
2018-07-04T10:58:42.822Z,21.83
2018-07-04T11:01:33.394Z,28.83
2018-07-04T11:10:03.651Z,33.47
2018-07-04T11:12:49.627Z,24.13
2018-07-04T11:15:33.569Z,26.60
2018-07-04T11:18:20.733Z,30.57
2018-07-04T11:21:04.493Z,22.33
2018-07-04T11:23:44.408Z,25.37
2018-07-04T11:26:24.052Z,27.07
2018-07-04T11:29:03.870Z,25.83
2018-07-04T11:31:44.501Z,27.23
2018-07-04T11:34:24.711Z,36.63
2018-07-04T11:37:04.310Z,25.87
2018-07-04T11:39:44.017Z,25.83
2018-07-04T11:42:23.781Z,25.13
2018-07-04T11:45:03.534Z,24.77
2018-07-04T11:47:31.885Z,26.37
2018-07-04T11:50:05.996Z,22.77
2018-07-04T11:52:33.549Z,23.03
2018-07-04T11:55:00.988Z,24.23
2018-07-04T11:57:28.504Z,23.37
2018-07-04T11:59:55.898Z,25.83
2018-07-04T12:02:27.019Z,27.90
2018-07-04T12:05:07.876Z,21.83
2018-07-04T12:07:37.327Z,23.57
2018-07-04T12:10:14.559Z,24.07
2018-07-04T12:12:56.409Z,24.40
2018-07-04T12:15:37.248Z,25.10
2018-07-04T12:18:11.809Z,28.67
2018-07-04T12:20:46.443Z,25.30
2018-07-04T12:23:17.684Z,27.17
2018-07-04T12:25:45.407Z,21.77
2018-07-04T12:28:12.885Z,22.87
2018-07-04T12:30:59.645Z,23.67
2018-07-04T12:33:31.766Z,21.57
2018-07-04T12:36:03.248Z,23.13
2018-07-04T12:38:30.672Z,23.43
2018-07-04T12:41:06.408Z,24.47
2018-07-04T12:43:37.108Z,23.70
2018-07-04T12:46:12.707Z,25.07
2018-07-04T12:48:40.201Z,28.53
2018-07-04T12:51:11.675Z,23.27
2018-07-04T12:54:04.333Z,21.67
2018-07-04T12:56:45.297Z,23.07
2018-07-04T12:59:31.474Z,18.37
2018-07-04T13:02:11.379Z,23.93
2018-07-04T13:04:52.380Z,26.67
2018-07-04T13:07:35.346Z,18.10
2018-07-04T13:10:14.655Z,20.67
2018-07-04T13:13:05.482Z,17.83
2018-07-04T13:18:40.078Z,18.10
2018-07-04T13:21:24.828Z,20.20
2018-07-04T13:24:05.614Z,21.43
2018-07-04T13:26:47.284Z,16.13
2018-07-04T13:29:32.088Z,21.53
2018-07-04T13:32:19.315Z,20.13
2018-07-04T13:35:01.058Z,20.40
2018-07-04T13:37:41.668Z,25.83
2018-07-04T13:40:21.620Z,25.00
2018-07-04T13:43:01.188Z,20.33
2018-07-04T13:45:46.373Z,21.30
2018-07-04T13:48:28.296Z,22.23
2018-07-04T13:51:09.876Z,20.40
2018-07-04T13:53:50.787Z,15.73
2018-07-04T13:56:30.484Z,18.37
2018-07-04T13:59:15.146Z,18.60
2018-07-04T14:01:55.620Z,16.73
2018-07-04T14:04:35.520Z,16.63
2018-07-04T14:07:15.173Z,17.47
2018-07-04T14:09:56.819Z,14.47
2018-07-04T14:12:36.594Z,13.13
2018-07-04T14:15:17.334Z,14.60
2018-07-04T14:18:02.734Z,16.40
2018-07-04T14:20:43.542Z,19.87
2018-07-04T14:23:26.598Z,18.50
2018-07-04T14:26:09.818Z,18.87
2018-07-04T14:28:53.131Z,18.03
2018-07-04T14:31:32.536Z,15.53
2018-07-04T14:34:12.572Z,17.27
2018-07-04T14:36:53.427Z,16.10
2018-07-04T14:39:34.788Z,16.20
2018-07-04T14:42:14.488Z,16.83
2018-07-04T14:44:54.207Z,17.03
2018-07-04T14:47:35.917Z,17.83
2018-07-04T14:50:17.827Z,18.73
2018-07-04T14:52:59.603Z,14.30
2018-07-04T14:55:39.233Z,15.00
2018-07-04T14:58:22.713Z,15.77
2018-07-04T15:01:03.872Z,19.70
2018-07-04T15:03:44.755Z,16.73
2018-07-04T15:06:28.525Z,15.80
2018-07-04T15:09:08.728Z,17.67
2018-07-04T15:11:48.534Z,12.70
2018-07-04T15:14:31.181Z,16.67
2018-07-04T15:17:15.551Z,15.47
2018-07-04T15:22:50.692Z,17.67
2018-07-04T15:25:36.386Z,24.90
2018-07-04T15:28:18.107Z,15.20
2018-07-04T15:30:57.879Z,12.40
2018-07-04T15:33:38.851Z,15.83
2018-07-04T15:36:18.551Z,14.20
2018-07-04T15:38:58.326Z,11.97
2018-07-04T15:41:38.073Z,14.40
2018-07-04T15:44:17.716Z,14.90
2018-07-04T15:46:59.379Z,15.33
2018-07-04T15:49:39.237Z,11.37
2018-07-04T15:52:19.184Z,14.60
2018-07-04T15:54:59.000Z,15.10
2018-07-04T15:57:40.928Z,11.63
2018-07-04T16:00:25.592Z,12.57
2018-07-04T16:03:07.883Z,11.73
2018-07-04T16:05:49.687Z,21.17
2018-07-04T16:08:29.704Z,13.70
2018-07-04T16:11:10.133Z,12.53
2018-07-04T16:13:50.050Z,11.20
2018-07-04T16:16:29.905Z,11.67
2018-07-04T16:19:09.860Z,9.23
2018-07-04T16:21:49.664Z,10.87
2018-07-04T16:24:34.818Z,13.73
2018-07-04T16:27:14.622Z,11.83
2018-07-04T16:29:54.384Z,17.00
2018-07-04T16:32:36.506Z,10.50
2018-07-04T16:35:16.354Z,12.97
2018-07-04T16:38:01.290Z,18.30
2018-07-04T16:40:45.344Z,12.50
2018-07-04T16:43:27.133Z,11.90
2018-07-04T16:46:06.934Z,10.70
2018-07-04T16:48:47.631Z,13.77
2018-07-04T16:51:27.730Z,10.57
2018-07-04T16:54:12.554Z,9.63
2018-07-04T16:56:57.480Z,9.80
2018-07-04T16:59:37.574Z,13.63
2018-07-04T17:02:21.474Z,14.70
2018-07-04T17:05:02.482Z,11.90
2018-07-04T17:07:43.724Z,11.93
2018-07-04T17:10:23.882Z,10.83
2018-07-04T17:13:05.012Z,10.57
2018-07-04T17:15:44.856Z,12.37
2018-07-04T17:18:24.929Z,9.73
2018-07-04T17:21:05.715Z,10.37
2018-07-04T17:23:49.265Z,8.87
2018-07-04T17:26:31.456Z,10.23
2018-07-04T17:29:12.177Z,9.53
2018-07-04T17:31:53.387Z,10.33
2018-07-04T17:34:33.135Z,11.30
2018-07-04T17:37:13.991Z,13.80
2018-07-04T17:39:54.040Z,8.30
2018-07-04T17:42:37.219Z,11.97
2018-07-04T17:45:17.981Z,10.13
2018-07-04T17:47:59.027Z,11.50
2018-07-04T17:50:41.719Z,10.03
2018-07-04T17:53:21.325Z,13.53
2018-07-04T17:56:05.024Z,9.27
2018-07-04T17:58:44.997Z,10.50
2018-07-04T18:01:26.830Z,9.50
2018-07-04T18:04:12.284Z,8.63
2018-07-04T18:06:52.600Z,12.27
2018-07-04T18:09:36.710Z,10.27
2018-07-04T18:12:16.559Z,12.57
2018-07-04T18:14:58.052Z,7.63
2018-07-04T18:17:44.020Z,11.07
2018-07-04T18:20:25.934Z,6.90
2018-07-04T18:23:05.944Z,8.57
2018-07-04T18:25:49.208Z,8.40
2018-07-04T18:28:34.774Z,10.70
2018-07-04T18:31:14.686Z,11.13
2018-07-04T18:33:55.707Z,11.30
2018-07-04T18:36:39.419Z,9.97
2018-07-04T18:39:28.235Z,14.60
2018-07-04T18:42:07.984Z,8.43
2018-07-04T18:44:48.908Z,6.20
2018-07-04T18:47:33.613Z,12.93
2018-07-04T18:50:16.963Z,10.83
2018-07-04T18:52:56.791Z,11.83
2018-07-04T18:55:37.708Z,8.73
2018-07-04T18:58:17.447Z,10.87
2018-07-04T19:00:57.118Z,7.57
2018-07-04T19:03:37.137Z,8.57
2018-07-04T19:06:22.012Z,8.17
2018-07-04T19:09:04.769Z,11.87
2018-07-04T19:11:47.018Z,10.60
2018-07-04T19:14:30.457Z,13.47
2018-07-04T19:17:15.200Z,7.37
2018-07-04T19:19:56.160Z,10.67
2018-07-04T19:22:38.158Z,9.53
2018-07-04T19:25:18.016Z,11.20
2018-07-04T19:27:57.893Z,9.47
2018-07-04T19:30:37.779Z,8.87
2018-07-04T19:33:17.670Z,7.37
2018-07-04T19:35:57.591Z,9.73
2018-07-04T19:38:41.463Z,12.17
2018-07-04T19:41:22.429Z,8.70
2018-07-04T19:44:04.081Z,14.00
2018-07-04T19:46:45.009Z,10.00
2018-07-04T19:49:27.059Z,9.07
2018-07-04T19:52:07.305Z,6.90
2018-07-04T19:54:48.931Z,10.27
2018-07-04T19:57:28.729Z,11.80
2018-07-04T20:00:09.721Z,7.17
2018-07-04T20:02:52.812Z,12.50
2018-07-04T20:05:39.103Z,11.87
2018-07-04T20:08:18.911Z,7.27
2018-07-04T20:11:00.861Z,9.80
2018-07-04T20:13:40.961Z,9.47
2018-07-04T20:16:21.294Z,10.67
2018-07-04T20:19:03.136Z,11.47
2018-07-04T20:21:48.086Z,8.20
2018-07-04T20:24:30.837Z,9.53
2018-07-04T20:27:11.324Z,9.53
2018-07-04T20:29:53.105Z,14.47
2018-07-04T20:32:35.317Z,16.93
2018-07-04T20:35:16.421Z,10.07
2018-07-04T20:38:01.958Z,9.23
2018-07-04T20:40:55.175Z,14.43
2018-07-04T20:43:36.217Z,9.23
2018-07-04T20:46:16.623Z,9.23
2018-07-04T20:48:56.582Z,14.33
2018-07-04T20:51:37.218Z,7.80
2018-07-04T20:54:18.017Z,12.00
2018-07-04T20:57:01.538Z,13.03
2018-07-04T20:59:41.402Z,11.37
2018-07-04T21:02:22.830Z,11.27
2018-07-04T21:05:02.649Z,11.00
2018-07-04T21:07:42.491Z,8.43
2018-07-04T21:16:06.242Z,14.67
2018-07-04T21:18:49.840Z,10.90
2018-07-04T21:21:31.469Z,9.80
2018-07-04T21:24:12.139Z,10.60
2018-07-04T21:26:55.051Z,13.37
2018-07-04T21:29:34.576Z,8.87
2018-07-04T21:32:16.277Z,10.00
2018-07-04T21:35:00.710Z,11.33
2018-07-04T21:37:41.149Z,12.20
2018-07-04T21:40:26.073Z,11.87
2018-07-04T21:43:06.387Z,8.13
2018-07-04T21:45:50.214Z,10.73
2018-07-04T21:48:29.930Z,12.93
2018-07-04T21:51:09.986Z,10.50
2018-07-04T21:53:53.155Z,14.47
2018-07-04T21:56:34.570Z,11.37
2018-07-04T21:59:15.159Z,14.87
2018-07-04T22:01:58.939Z,12.47
2018-07-04T22:04:43.601Z,17.90
2018-07-04T22:07:23.631Z,16.80
2018-07-04T22:10:05.452Z,13.43
2018-07-04T22:12:45.333Z,18.17
2018-07-04T22:15:30.809Z,12.73
2018-07-04T22:18:10.611Z,10.27
2018-07-04T22:20:57.369Z,13.70
2018-07-04T22:23:37.724Z,10.73
2018-07-04T22:26:19.661Z,11.43
2018-07-04T22:29:00.381Z,10.83
2018-07-04T22:31:42.490Z,15.20
2018-07-04T22:34:22.043Z,9.73
2018-07-04T22:37:01.849Z,13.30
2018-07-04T22:39:43.413Z,9.47
2018-07-04T22:42:23.980Z,10.60
2018-07-04T22:45:07.426Z,7.27
2018-07-04T22:47:56.961Z,10.83
2018-07-04T22:50:39.679Z,8.33
2018-07-04T22:53:22.725Z,8.80
2018-07-04T22:56:03.361Z,12.33
2018-07-04T22:58:43.679Z,10.77
2018-07-04T23:01:23.499Z,10.43
2018-07-04T23:04:15.109Z,10.10
2018-07-04T23:07:01.307Z,10.00
2018-07-04T23:09:42.197Z,9.20
2018-07-04T23:12:21.894Z,9.70
2018-07-04T23:15:03.424Z,7.97
2018-07-04T23:17:43.031Z,8.13
2018-07-04T23:20:24.709Z,12.00
2018-07-04T23:23:06.507Z,9.77
2018-07-04T23:25:47.423Z,7.00
2018-07-04T23:28:27.143Z,7.27
2018-07-04T23:31:07.610Z,9.27
2018-07-04T23:33:54.136Z,7.30
2018-07-04T23:36:39.007Z,6.27
2018-07-04T23:39:19.839Z,9.43
2018-07-04T23:42:01.799Z,8.07
2018-07-04T23:44:42.394Z,8.93
2018-07-04T23:47:23.150Z,8.40
2018-07-04T23:50:08.130Z,8.30
2018-07-04T23:55:41.791Z,9.33
2018-07-04T23:58:27.200Z,10.60
